sim
Sign-in with your pilot id or email,
or register
Callsign
Passwort

Schedule Details

Flight Number: OEO5887
Departure: Berlin Tegel Airport (EDDT) at 08:25
Arrival: Fuerteventura Airport (GCFV) at 13:55

Weather Information
Getting current METAR information for EDDT 172320Z 19005KT CAVOK 20/13 Q1008
Getting current METAR information for GCFV 172330Z AUTO 02009KT 9999 NCD 23/20 Q1014

Schedule Frequency

Route Map